sensor_id;sensor_type;location;lat;lon;timestamp;pressure;altitude;pressure_sealevel;temperature;humidity
13661;BME280;6903;49.480;11.102;2023-01-30T00:01:42;98379.72;;;-2.59;100.00
13661;BME280;6903;49.480;11.102;2023-01-30T00:04:09;98367.75;;;-2.63;100.00
13661;BME280;6903;49.480;11.102;2023-01-30T00:06:37;98366.94;;;-2.65;100.00
13661;BME280;6903;49.480;11.102;2023-01-30T00:09:02;98365.22;;;-2.65;100.00
13661;BME280;6903;49.480;11.102;2023-01-30T00:11:28;98351.41;;;-2.64;100.00
13661;BME280;6903;49.480;11.102;2023-01-30T00:13:54;98349.78;;;-2.68;100.00
13661;BME280;6903;49.480;11.102;2023-01-30T00:16:19;98343.03;;;-2.73;100.00
13661;BME280;6903;49.480;11.102;2023-01-30T00:18:45;98328.47;;;-2.76;100.00
13661;BME280;6903;49.480;11.102;2023-01-30T00:21:12;98325.94;;;-2.79;100.00
13661;BME280;6903;49.480;11.102;2023-01-30T00:23:38;98324.31;;;-2.83;100.00
13661;BME280;6903;49.480;11.102;2023-01-30T00:26:04;98326.84;;;-2.81;100.00
13661;BME280;6903;49.480;11.102;2023-01-30T00:28:30;98327.75;;;-2.82;100.00
13661;BME280;6903;49.480;11.102;2023-01-30T00:30:55;98322.63;;;-2.84;100.00
13661;BME280;6903;49.480;11.102;2023-01-30T00:33:22;98326.13;;;-2.88;100.00
13661;BME280;6903;49.480;11.102;2023-01-30T00:35:50;98327.94;;;-2.93;100.00
13661;BME280;6903;49.480;11.102;2023-01-30T00:38:16;98334.03;;;-2.96;100.00
13661;BME280;6903;49.480;11.102;2023-01-30T00:40:42;98336.63;;;-2.97;100.00
13661;BME280;6903;49.480;11.102;2023-01-30T00:43:12;98341.03;;;-3.02;100.00
13661;BME280;6903;49.480;11.102;2023-01-30T00:45:56;98350.56;;;-3.06;100.00
13661;BME280;6903;49.480;11.102;2023-01-30T00:48:40;98361.66;;;-3.02;100.00
13661;BME280;6903;49.480;11.102;2023-01-30T00:51:05;98370.09;;;-2.94;100.00
13661;BME280;6903;49.480;11.102;2023-01-30T00:53:31;98366.47;;;-2.84;100.00
13661;BME280;6903;49.480;11.102;2023-01-30T00:55:56;98374.00;;;-2.75;100.00
13661;BME280;6903;49.480;11.102;2023-01-30T00:58:22;98385.84;;;-2.65;100.00
13661;BME280;6903;49.480;11.102;2023-01-30T01:00:49;98388.22;;;-2.56;100.00
13661;BME280;6903;49.480;11.102;2023-01-30T01:03:14;98390.59;;;-2.45;100.00
13661;BME280;6903;49.480;11.102;2023-01-30T01:05:40;98399.84;;;-2.34;100.00
13661;BME280;6903;49.480;11.102;2023-01-30T01:08:06;98386.72;;;-2.25;100.00
13661;BME280;6903;49.480;11.102;2023-01-30T01:10:31;98389.06;;;-2.16;100.00
13661;BME280;6903;49.480;11.102;2023-01-30T01:12:57;98382.88;;;-2.07;100.00
13661;BME280;6903;49.480;11.102;2023-01-30T01:15:23;98377.47;;;-1.97;100.00
13661;BME280;6903;49.480;11.102;2023-01-30T01:17:50;98360.84;;;-1.87;100.00
13661;BME280;6903;49.480;11.102;2023-01-30T01:20:16;98364.88;;;-1.75;100.00
13661;BME280;6903;49.480;11.102;2023-01-30T01:22:42;98369.78;;;-1.65;100.00
13661;BME280;6903;49.480;11.102;2023-01-30T01:25:09;98369.47;;;-1.53;100.00
13661;BME280;6903;49.480;11.102;2023-01-30T01:27:34;98357.03;;;-1.37;100.00
13661;BME280;6903;49.480;11.102;2023-01-30T01:30:00;98360.03;;;-1.21;100.00
13661;BME280;6903;49.480;11.102;2023-01-30T01:32:25;98363.06;;;-1.06;100.00
13661;BME280;6903;49.480;11.102;2023-01-30T01:34:50;98349.84;;;-0.95;100.00
13661;BME280;6903;49.480;11.102;2023-01-30T01:37:16;98338.31;;;-0.84;100.00
13661;BME280;6903;49.480;11.102;2023-01-30T01:39:41;98337.09;;;-0.72;100.00
13661;BME280;6903;49.480;11.102;2023-01-30T01:42:28;98340.16;;;-0.58;100.00
13661;BME280;6903;49.480;11.102;2023-01-30T01:47:59;98310.88;;;-0.33;100.00
13661;BME280;6903;49.480;11.102;2023-01-30T01:50:37;98293.97;;;-0.17;100.00
13661;BME280;6903;49.480;11.102;2023-01-30T01:53:05;98297.97;;;-0.07;100.00
13661;BME280;6903;49.480;11.102;2023-01-30T01:55:31;98308.06;;;0.01;100.00
13661;BME280;6903;49.480;11.102;2023-01-30T01:58:03;98294.81;;;0.10;100.00
13661;BME280;6903;49.480;11.102;2023-01-30T02:00:30;98293.44;;;0.25;100.00
13661;BME280;6903;49.480;11.102;2023-01-30T02:02:58;98293.00;;;0.38;100.00
13661;BME280;6903;49.480;11.102;2023-01-30T02:05:38;98273.66;;;0.48;100.00
13661;BME280;6903;49.480;11.102;2023-01-30T02:08:08;98267.38;;;0.54;100.00
13661;BME280;6903;49.480;11.102;2023-01-30T02:13:24;98274.06;;;0.61;100.00
13661;BME280;6903;49.480;11.102;2023-01-30T02:15:50;98254.25;;;0.58;100.00
13661;BME280;6903;49.480;11.102;2023-01-30T02:18:16;98247.38;;;0.57;100.00
13661;BME280;6903;49.480;11.102;2023-01-30T02:23:36;98249.84;;;0.60;100.00
13661;BME280;6903;49.480;11.102;2023-01-30T02:32:08;98203.84;;;0.65;100.00
13661;BME280;6903;49.480;11.102;2023-01-30T02:37:28;98181.06;;;0.73;100.00
13661;BME280;6903;49.480;11.102;2023-01-30T02:42:50;98190.38;;;0.79;100.00
13661;BME280;6903;49.480;11.102;2023-01-30T02:45:41;98211.03;;;0.82;100.00
13661;BME280;6903;49.480;11.102;2023-01-30T02:48:13;98209.88;;;0.89;100.00
13661;BME280;6903;49.480;11.102;2023-01-30T02:50:52;98196.78;;;0.92;100.00
13661;BME280;6903;49.480;11.102;2023-01-30T02:53:21;98204.34;;;0.98;100.00
13661;BME280;6903;49.480;11.102;2023-01-30T02:55:46;98183.53;;;0.99;100.00
13661;BME280;6903;49.480;11.102;2023-01-30T02:58:12;98179.84;;;1.05;100.00
13661;BME280;6903;49.480;11.102;2023-01-30T03:04:07;98186.44;;;1.13;100.00
13661;BME280;6903;49.480;11.102;2023-01-30T03:06:59;98180.13;;;1.20;100.00
13661;BME280;6903;49.480;11.102;2023-01-30T03:09:44;98171.28;;;1.24;100.00
13661;BME280;6903;49.480;11.102;2023-01-30T03:12:43;98162.34;;;1.31;100.00
13661;BME280;6903;49.480;11.102;2023-01-30T03:15:20;98153.66;;;1.32;100.00
13661;BME280;6903;49.480;11.102;2023-01-30T03:17:49;98133.78;;;1.31;100.00
13661;BME280;6903;49.480;11.102;2023-01-30T03:20:15;98137.16;;;1.33;100.00
13661;BME280;6903;49.480;11.102;2023-01-30T03:22:42;98121.47;;;1.36;100.00
13661;BME280;6903;49.480;11.102;2023-01-30T03:25:08;98116.19;;;1.38;100.00
13661;BME280;6903;49.480;11.102;2023-01-30T03:27:34;98119.53;;;1.41;100.00
13661;BME280;6903;49.480;11.102;2023-01-30T03:30:00;98101.34;;;1.41;100.00
13661;BME280;6903;49.480;11.102;2023-01-30T03:32:25;98097.41;;;1.31;100.00
13661;BME280;6903;49.480;11.102;2023-01-30T03:34:50;98095.75;;;1.30;100.00
13661;BME280;6903;49.480;11.102;2023-01-30T03:37:16;98088.13;;;1.26;100.00
13661;BME280;6903;49.480;11.102;2023-01-30T03:39:41;98100.88;;;1.32;100.00
13661;BME280;6903;49.480;11.102;2023-01-30T03:42:06;98099.88;;;1.34;100.00
13661;BME280;6903;49.480;11.102;2023-01-30T03:44:32;98111.00;;;1.38;100.00
13661;BME280;6903;49.480;11.102;2023-01-30T03:46:57;98111.66;;;1.43;100.00
13661;BME280;6903;49.480;11.102;2023-01-30T03:49:22;98108.22;;;1.42;100.00
13661;BME280;6903;49.480;11.102;2023-01-30T03:51:48;98102.03;;;1.45;100.00
13661;BME280;6903;49.480;11.102;2023-01-30T03:54:13;98094.22;;;1.47;100.00
13661;BME280;6903;49.480;11.102;2023-01-30T03:56:38;98086.22;;;1.51;100.00
13661;BME280;6903;49.480;11.102;2023-01-30T03:59:03;98081.91;;;1.50;100.00
13661;BME280;6903;49.480;11.102;2023-01-30T04:01:29;98082.75;;;1.51;100.00
13661;BME280;6903;49.480;11.102;2023-01-30T04:03:54;98080.31;;;1.48;100.00
13661;BME280;6903;49.480;11.102;2023-01-30T04:06:19;98095.63;;;1.54;100.00
13661;BME280;6903;49.480;11.102;2023-01-30T04:08:45;98101.63;;;1.56;100.00
13661;BME280;6903;49.480;11.102;2023-01-30T04:11:10;98102.53;;;1.55;100.00
13661;BME280;6903;49.480;11.102;2023-01-30T04:13:35;98099.97;;;1.53;100.00
13661;BME280;6903;49.480;11.102;2023-01-30T04:16:24;98099.16;;;1.53;100.00
13661;BME280;6903;49.480;11.102;2023-01-30T04:18:49;98108.63;;;1.54;100.00
13661;BME280;6903;49.480;11.102;2023-01-30T04:21:15;98115.25;;;1.61;100.00
13661;BME280;6903;49.480;11.102;2023-01-30T04:23:41;98127.03;;;1.69;100.00
13661;BME280;6903;49.480;11.102;2023-01-30T04:26:07;98118.00;;;1.78;100.00
13661;BME280;6903;49.480;11.102;2023-01-30T04:28:32;98112.06;;;1.74;100.00
13661;BME280;6903;49.480;11.102;2023-01-30T04:30:58;98104.28;;;1.74;100.00
13661;BME280;6903;49.480;11.102;2023-01-30T04:33:23;98097.19;;;1.78;100.00
13661;BME280;6903;49.480;11.102;2023-01-30T04:35:57;98101.50;;;1.79;100.00
13661;BME280;6903;49.480;11.102;2023-01-30T04:38:23;98099.00;;;1.76;100.00
13661;BME280;6903;49.480;11.102;2023-01-30T04:40:50;98100.78;;;1.75;100.00
13661;BME280;6903;49.480;11.102;2023-01-30T04:43:16;98104.09;;;1.79;100.00
13661;BME280;6903;49.480;11.102;2023-01-30T04:45:43;98095.38;;;1.80;100.00
13661;BME280;6903;49.480;11.102;2023-01-30T04:48:08;98093.50;;;1.83;100.00
13661;BME280;6903;49.480;11.102;2023-01-30T04:50:34;98087.38;;;1.84;100.00
13661;BME280;6903;49.480;11.102;2023-01-30T04:52:59;98090.00;;;1.84;100.00
13661;BME280;6903;49.480;11.102;2023-01-30T04:55:24;98086.66;;;1.81;100.00
13661;BME280;6903;49.480;11.102;2023-01-30T04:57:50;98077.97;;;1.82;100.00
13661;BME280;6903;49.480;11.102;2023-01-30T05:00:15;98086.81;;;1.78;100.00
13661;BME280;6903;49.480;11.102;2023-01-30T05:02:41;98080.06;;;1.74;100.00
13661;BME280;6903;49.480;11.102;2023-01-30T05:05:06;98061.22;;;1.69;100.00
13661;BME280;6903;49.480;11.102;2023-01-30T05:07:31;98041.97;;;1.73;100.00
13661;BME280;6903;49.480;11.102;2023-01-30T05:09:57;98044.56;;;1.73;100.00
13661;BME280;6903;49.480;11.102;2023-01-30T05:12:22;98052.63;;;1.67;100.00
13661;BME280;6903;49.480;11.102;2023-01-30T05:14:47;98051.97;;;1.62;100.00
13661;BME280;6903;49.480;11.102;2023-01-30T05:17:13;98039.13;;;1.59;100.00
13661;BME280;6903;49.480;11.102;2023-01-30T05:19:38;98041.59;;;1.62;100.00
13661;BME280;6903;49.480;11.102;2023-01-30T05:22:03;98051.91;;;1.63;100.00
13661;BME280;6903;49.480;11.102;2023-01-30T05:24:29;98045.16;;;1.59;100.00
13661;BME280;6903;49.480;11.102;2023-01-30T05:26:54;98044.25;;;1.60;100.00
13661;BME280;6903;49.480;11.102;2023-01-30T05:29:19;98042.72;;;1.56;100.00
13661;BME280;6903;49.480;11.102;2023-01-30T05:31:44;98044.31;;;1.59;100.00
13661;BME280;6903;49.480;11.102;2023-01-30T05:34:11;98046.84;;;1.60;100.00
13661;BME280;6903;49.480;11.102;2023-01-30T05:36:36;98047.84;;;1.58;100.00
13661;BME280;6903;49.480;11.102;2023-01-30T05:39:01;98053.84;;;1.58;100.00
13661;BME280;6903;49.480;11.102;2023-01-30T05:41:27;98054.72;;;1.59;100.00
13661;BME280;6903;49.480;11.102;2023-01-30T05:43:52;98055.56;;;1.59;100.00
13661;BME280;6903;49.480;11.102;2023-01-30T05:46:17;98064.31;;;1.57;100.00
13661;BME280;6903;49.480;11.102;2023-01-30T05:48:43;98063.66;;;1.52;100.00
13661;BME280;6903;49.480;11.102;2023-01-30T05:51:20;98067.31;;;1.48;100.00
13661;BME280;6903;49.480;11.102;2023-01-30T05:53:46;98058.72;;;1.45;100.00
13661;BME280;6903;49.480;11.102;2023-01-30T05:56:12;98058.78;;;1.44;100.00
13661;BME280;6903;49.480;11.102;2023-01-30T05:58:37;98050.03;;;1.47;100.00
13661;BME280;6903;49.480;11.102;2023-01-30T06:01:05;98044.78;;;1.48;100.00
13661;BME280;6903;49.480;11.102;2023-01-30T06:03:31;98028.41;;;1.46;100.00
13661;BME280;6903;49.480;11.102;2023-01-30T06:05:57;98035.53;;;1.41;100.00
13661;BME280;6903;49.480;11.102;2023-01-30T06:08:23;98027.41;;;1.48;100.00
13661;BME280;6903;49.480;11.102;2023-01-30T06:10:48;98027.75;;;1.41;100.00
13661;BME280;6903;49.480;11.102;2023-01-30T06:13:14;98030.56;;;1.36;100.00
13661;BME280;6903;49.480;11.102;2023-01-30T06:15:39;98031.44;;;1.35;100.00
13661;BME280;6903;49.480;11.102;2023-01-30T06:18:04;98035.69;;;1.38;100.00
13661;BME280;6903;49.480;11.102;2023-01-30T06:20:30;98044.41;;;1.35;100.00
13661;BME280;6903;49.480;11.102;2023-01-30T06:22:55;98046.91;;;1.38;100.00
13661;BME280;6903;49.480;11.102;2023-01-30T06:25:21;98042.69;;;1.36;100.00
13661;BME280;6903;49.480;11.102;2023-01-30T06:27:46;98044.34;;;1.37;100.00
13661;BME280;6903;49.480;11.102;2023-01-30T06:30:12;98037.41;;;1.37;100.00
13661;BME280;6903;49.480;11.102;2023-01-30T06:32:37;98039.16;;;1.37;100.00
13661;BME280;6903;49.480;11.102;2023-01-30T06:35:03;98036.41;;;1.41;100.00
13661;BME280;6903;49.480;11.102;2023-01-30T06:37:28;98040.59;;;1.44;100.00
13661;BME280;6903;49.480;11.102;2023-01-30T06:39:54;98045.47;;;1.52;100.00
13661;BME280;6903;49.480;11.102;2023-01-30T06:42:19;98052.38;;;1.53;100.00
13661;BME280;6903;49.480;11.102;2023-01-30T06:44:44;98051.38;;;1.55;100.00
13661;BME280;6903;49.480;11.102;2023-01-30T06:47:10;98049.72;;;1.54;100.00
13661;BME280;6903;49.480;11.102;2023-01-30T06:49:35;98056.38;;;1.60;100.00
13661;BME280;6903;49.480;11.102;2023-01-30T06:52:00;98056.28;;;1.63;100.00
13661;BME280;6903;49.480;11.102;2023-01-30T06:54:25;98045.97;;;1.61;100.00
13661;BME280;6903;49.480;11.102;2023-01-30T06:56:51;98051.91;;;1.63;100.00
13661;BME280;6903;49.480;11.102;2023-01-30T06:59:16;98041.38;;;1.66;100.00
13661;BME280;6903;49.480;11.102;2023-01-30T07:01:41;98041.44;;;1.65;100.00
13661;BME280;6903;49.480;11.102;2023-01-30T07:04:07;98035.22;;;1.69;100.00
13661;BME280;6903;49.480;11.102;2023-01-30T07:06:32;98036.69;;;1.74;100.00
13661;BME280;6903;49.480;11.102;2023-01-30T07:08:57;98043.81;;;1.71;100.00
13661;BME280;6903;49.480;11.102;2023-01-30T07:11:24;98033.47;;;1.69;100.00
13661;BME280;6903;49.480;11.102;2023-01-30T07:13:49;98032.69;;;1.67;100.00
13661;BME280;6903;49.480;11.102;2023-01-30T07:16:15;98031.69;;;1.70;100.00
13661;BME280;6903;49.480;11.102;2023-01-30T07:18:40;98029.97;;;1.70;100.00
13661;BME280;6903;49.480;11.102;2023-01-30T07:21:05;98030.81;;;1.71;100.00
13661;BME280;6903;49.480;11.102;2023-01-30T07:23:31;98032.28;;;1.76;100.00
13661;BME280;6903;49.480;11.102;2023-01-30T07:25:56;98027.75;;;1.81;100.00
13661;BME280;6903;49.480;11.102;2023-01-30T07:28:22;98032.72;;;1.86;100.00
13661;BME280;6903;49.480;11.102;2023-01-30T07:30:47;98031.69;;;1.90;100.00
13661;BME280;6903;49.480;11.102;2023-01-30T07:33:16;98024.41;;;1.98;100.00
13661;BME280;6903;49.480;11.102;2023-01-30T07:35:41;98014.91;;;1.97;100.00
13661;BME280;6903;49.480;11.102;2023-01-30T07:38:07;98004.56;;;1.95;100.00
13661;BME280;6903;49.480;11.102;2023-01-30T07:40:33;98010.91;;;1.90;100.00
13661;BME280;6903;49.480;11.102;2023-01-30T07:43:04;98008.09;;;1.94;100.00
13661;BME280;6903;49.480;11.102;2023-01-30T07:45:35;98000.16;;;1.97;100.00
13661;BME280;6903;49.480;11.102;2023-01-30T07:48:01;97998.34;;;1.99;100.00
13661;BME280;6903;49.480;11.102;2023-01-30T07:50:26;97974.00;;;2.00;100.00
13661;BME280;6903;49.480;11.102;2023-01-30T07:52:51;97963.41;;;2.05;100.00
13661;BME280;6903;49.480;11.102;2023-01-30T07:55:17;97983.03;;;2.12;100.00
13661;BME280;6903;49.480;11.102;2023-01-30T07:57:42;97976.06;;;2.12;100.00
13661;BME280;6903;49.480;11.102;2023-01-30T08:00:08;97966.22;;;2.19;100.00
13661;BME280;6903;49.480;11.102;2023-01-30T08:02:35;97970.38;;;2.23;100.00
13661;BME280;6903;49.480;11.102;2023-01-30T08:05:00;97963.19;;;2.28;100.00
13661;BME280;6903;49.480;11.102;2023-01-30T08:07:25;97959.00;;;2.25;100.00
13661;BME280;6903;49.480;11.102;2023-01-30T08:09:51;97950.25;;;2.26;100.00
13661;BME280;6903;49.480;11.102;2023-01-30T08:12:16;97950.34;;;2.25;100.00
13661;BME280;6903;49.480;11.102;2023-01-30T08:14:41;97939.94;;;2.25;100.00
13661;BME280;6903;49.480;11.102;2023-01-30T08:17:07;97941.47;;;2.29;100.00
13661;BME280;6903;49.480;11.102;2023-01-30T08:19:32;97950.19;;;2.28;100.00
13661;BME280;6903;49.480;11.102;2023-01-30T08:21:58;97951.03;;;2.28;100.00
13661;BME280;6903;49.480;11.102;2023-01-30T08:24:23;97949.00;;;2.35;100.00
13661;BME280;6903;49.480;11.102;2023-01-30T08:26:49;97946.09;;;2.41;100.00
13661;BME280;6903;49.480;11.102;2023-01-30T08:29:15;97946.81;;;2.44;100.00
13661;BME280;6903;49.480;11.102;2023-01-30T08:31:40;97952.97;;;2.42;100.00
13661;BME280;6903;49.480;11.102;2023-01-30T08:34:06;97947.03;;;2.40;100.00
13661;BME280;6903;49.480;11.102;2023-01-30T08:36:31;97945.16;;;2.42;100.00
13661;BME280;6903;49.480;11.102;2023-01-30T08:38:56;97927.88;;;2.41;100.00
13661;BME280;6903;49.480;11.102;2023-01-30T08:41:22;97944.28;;;2.43;100.00
13661;BME280;6903;49.480;11.102;2023-01-30T08:43:47;97923.31;;;2.46;100.00
13661;BME280;6903;49.480;11.102;2023-01-30T08:46:12;97923.16;;;2.49;100.00
13661;BME280;6903;49.480;11.102;2023-01-30T08:48:38;97923.88;;;2.52;100.00
13661;BME280;6903;49.480;11.102;2023-01-30T08:51:05;97924.34;;;2.60;100.00
13661;BME280;6903;49.480;11.102;2023-01-30T08:53:30;97913.84;;;2.62;100.00
13661;BME280;6903;49.480;11.102;2023-01-30T08:55:56;97919.06;;;2.62;100.00
13661;BME280;6903;49.480;11.102;2023-01-30T08:58:21;97922.78;;;2.56;100.00
13661;BME280;6903;49.480;11.102;2023-01-30T09:00:47;97923.09;;;2.50;100.00
13661;BME280;6903;49.480;11.102;2023-01-30T09:03:13;97924.00;;;2.49;100.00
13661;BME280;6903;49.480;11.102;2023-01-30T09:05:39;97932.88;;;2.45;100.00
13661;BME280;6903;49.480;11.102;2023-01-30T09:08:04;97945.88;;;2.45;100.00
13661;BME280;6903;49.480;11.102;2023-01-30T09:10:29;97941.94;;;2.37;100.00
13661;BME280;6903;49.480;11.102;2023-01-30T09:12:55;97933.53;;;2.32;100.00
13661;BME280;6903;49.480;11.102;2023-01-30T09:15:20;97947.66;;;2.26;100.00
13661;BME280;6903;49.480;11.102;2023-01-30T09:17:46;97937.31;;;2.25;100.00
13661;BME280;6903;49.480;11.102;2023-01-30T09:20:11;97924.63;;;2.19;100.00
13661;BME280;6903;49.480;11.102;2023-01-30T09:22:37;97933.09;;;2.22;100.00
13661;BME280;6903;49.480;11.102;2023-01-30T09:25:03;97928.75;;;2.23;100.00
13661;BME280;6903;49.480;11.102;2023-01-30T09:27:29;97920.09;;;2.22;100.00
13661;BME280;6903;49.480;11.102;2023-01-30T09:29:54;97935.03;;;2.19;100.00
13661;BME280;6903;49.480;11.102;2023-01-30T09:32:20;97925.66;;;2.15;100.00
13661;BME280;6903;49.480;11.102;2023-01-30T09:34:45;97916.88;;;2.17;100.00
13661;BME280;6903;49.480;11.102;2023-01-30T09:37:10;97907.31;;;2.18;100.00
13661;BME280;6903;49.480;11.102;2023-01-30T09:39:36;97909.75;;;2.21;100.00
13661;BME280;6903;49.480;11.102;2023-01-30T09:47:51;97920.78;;;2.26;100.00
13661;BME280;6903;49.480;11.102;2023-01-30T09:53:19;97913.28;;;2.38;100.00
13661;BME280;6903;49.480;11.102;2023-01-30T09:55:47;97908.59;;;2.45;100.00
13661;BME280;6903;49.480;11.102;2023-01-30T09:58:20;97904.94;;;2.49;100.00
13661;BME280;6903;49.480;11.102;2023-01-30T10:00:48;97903.66;;;2.57;100.00
13661;BME280;6903;49.480;11.102;2023-01-30T10:05:50;97886.00;;;2.64;100.00
13661;BME280;6903;49.480;11.102;2023-01-30T10:13:47;97880.00;;;2.79;100.00
13661;BME280;6903;49.480;11.102;2023-01-30T10:19:09;97862.03;;;2.92;100.00
13661;BME280;6903;49.480;11.102;2023-01-30T10:24:51;97880.41;;;3.06;100.00
13661;BME280;6903;49.480;11.102;2023-01-30T10:27:19;97882.16;;;3.05;100.00
13661;BME280;6903;49.480;11.102;2023-01-30T10:29:54;97885.53;;;3.07;100.00
13661;BME280;6903;49.480;11.102;2023-01-30T10:35:19;97851.69;;;3.07;100.00
13661;BME280;6903;49.480;11.102;2023-01-30T10:38:05;97853.97;;;3.13;100.00
13661;BME280;6903;49.480;11.102;2023-01-30T10:40:38;97857.94;;;3.20;100.00
13661;BME280;6903;49.480;11.102;2023-01-30T10:45:53;97859.69;;;3.20;100.00
13661;BME280;6903;49.480;11.102;2023-01-30T10:48:44;97857.63;;;3.26;100.00
13661;BME280;6903;49.480;11.102;2023-01-30T10:57:06;97868.41;;;3.36;100.00
13661;BME280;6903;49.480;11.102;2023-01-30T11:00:09;97873.44;;;3.39;100.00
13661;BME280;6903;49.480;11.102;2023-01-30T11:03:07;97866.41;;;3.41;100.00
13661;BME280;6903;49.480;11.102;2023-01-30T11:05:48;97854.81;;;3.46;100.00
13661;BME280;6903;49.480;11.102;2023-01-30T11:10:43;97834.63;;;3.50;100.00
13661;BME280;6903;49.480;11.102;2023-01-30T11:13:16;97838.09;;;3.50;100.00
13661;BME280;6903;49.480;11.102;2023-01-30T11:15:45;97838.94;;;3.51;100.00
13661;BME280;6903;49.480;11.102;2023-01-30T11:18:12;97825.81;;;3.52;100.00
13661;BME280;6903;49.480;11.102;2023-01-30T11:20:40;97835.22;;;3.55;100.00
13661;BME280;6903;49.480;11.102;2023-01-30T11:23:10;97834.47;;;3.53;100.00
13661;BME280;6903;49.480;11.102;2023-01-30T11:25:52;97831.03;;;3.52;100.00
13661;BME280;6903;49.480;11.102;2023-01-30T11:28:18;97830.00;;;3.55;100.00
13661;BME280;6903;49.480;11.102;2023-01-30T11:30:49;97839.53;;;3.56;100.00
13661;BME280;6903;49.480;11.102;2023-01-30T11:33:17;97830.94;;;3.54;100.00
13661;BME280;6903;49.480;11.102;2023-01-30T11:35:52;97828.34;;;3.54;100.00
13661;BME280;6903;49.480;11.102;2023-01-30T11:38:27;97826.41;;;3.57;100.00
13661;BME280;6903;49.480;11.102;2023-01-30T11:43:38;97825.22;;;3.63;100.00
13661;BME280;6903;49.480;11.102;2023-01-30T11:46:07;97822.38;;;3.67;100.00
13661;BME280;6903;49.480;11.102;2023-01-30T11:48:49;97822.22;;;3.70;100.00
13661;BME280;6903;49.480;11.102;2023-01-30T11:51:19;97812.31;;;3.77;100.00
13661;BME280;6903;49.480;11.102;2023-01-30T11:53:52;97818.34;;;3.77;100.00
13661;BME280;6903;49.480;11.102;2023-01-30T11:56:38;97822.06;;;3.73;100.00
13661;BME280;6903;49.480;11.102;2023-01-30T12:01:39;97816.59;;;3.62;100.00
13661;BME280;6903;49.480;11.102;2023-01-30T12:04:07;97816.59;;;3.62;100.00
13661;BME280;6903;49.480;11.102;2023-01-30T12:06:37;97820.88;;;3.63;100.00
13661;BME280;6903;49.480;11.102;2023-01-30T12:09:03;97820.88;;;3.63;100.00
13661;BME280;6903;49.480;11.102;2023-01-30T12:14:18;97820.88;;;3.63;100.00
13661;BME280;6903;49.480;11.102;2023-01-30T12:19:26;97820.88;;;3.63;100.00
13661;BME280;6903;49.480;11.102;2023-01-30T12:22:03;97820.88;;;3.63;100.00
13661;BME280;6903;49.480;11.102;2023-01-30T12:24:39;97820.88;;;3.63;100.00
13661;BME280;6903;49.480;11.102;2023-01-30T12:27:23;97820.88;;;3.63;100.00
13661;BME280;6903;49.480;11.102;2023-01-30T12:29:59;97820.88;;;3.63;100.00
13661;BME280;6903;49.480;11.102;2023-01-30T12:32:29;97820.88;;;3.63;100.00
13661;BME280;6903;49.480;11.102;2023-01-30T12:34:55;97820.88;;;3.63;100.00
13661;BME280;6903;49.480;11.102;2023-01-30T12:38:01;97820.88;;;3.63;100.00
13661;BME280;6903;49.480;11.102;2023-01-30T12:43:33;97820.88;;;3.63;100.00
13661;BME280;6903;49.480;11.102;2023-01-30T12:46:16;97820.88;;;3.63;100.00
13661;BME280;6903;49.480;11.102;2023-01-30T12:49:20;97820.88;;;3.63;100.00
13661;BME280;6903;49.480;11.102;2023-01-30T12:52:00;97820.88;;;3.63;100.00
13661;BME280;6903;49.480;11.102;2023-01-30T12:57:32;97820.88;;;3.63;100.00
13661;BME280;6903;49.480;11.102;2023-01-30T13:03:18;97828.56;;;4.43;100.00
13661;BME280;6903;49.480;11.102;2023-01-30T13:11:05;97825.56;;;4.34;100.00
13661;BME280;6903;49.480;11.102;2023-01-30T13:13:42;97825.03;;;4.44;100.00
13661;BME280;6903;49.480;11.102;2023-01-30T13:16:31;97802.16;;;4.63;100.00
13661;BME280;6903;49.480;11.102;2023-01-30T13:19:06;97806.00;;;4.71;100.00
13661;BME280;6903;49.480;11.102;2023-01-30T13:22:05;97814.72;;;4.86;100.00
13661;BME280;6903;49.480;11.102;2023-01-30T13:27:18;97822.53;;;4.86;100.00
13661;BME280;6903;49.480;11.102;2023-01-30T13:29:46;97816.38;;;4.87;100.00
13661;BME280;6903;49.480;11.102;2023-01-30T13:32:20;97813.53;;;4.91;100.00
13661;BME280;6903;49.480;11.102;2023-01-30T13:34:48;97800.88;;;4.84;100.00
13661;BME280;6903;49.480;11.102;2023-01-30T13:37:17;97803.69;;;4.81;100.00
13661;BME280;6903;49.480;11.102;2023-01-30T13:45:17;97807.66;;;4.72;100.00
13661;BME280;6903;49.480;11.102;2023-01-30T13:50:54;97813.94;;;4.70;100.00
13661;BME280;6903;49.480;11.102;2023-01-30T13:55:56;97807.19;;;4.66;100.00
13661;BME280;6903;49.480;11.102;2023-01-30T13:58:38;97779.78;;;4.59;100.00
13661;BME280;6903;49.480;11.102;2023-01-30T14:01:09;97762.31;;;4.59;100.00
13661;BME280;6903;49.480;11.102;2023-01-30T14:03:35;97788.91;;;4.66;100.00
13661;BME280;6903;49.480;11.102;2023-01-30T14:06:05;97781.91;;;4.66;100.00
13661;BME280;6903;49.480;11.102;2023-01-30T14:08:49;97784.75;;;4.77;100.00
13661;BME280;6903;49.480;11.102;2023-01-30T14:11:27;97779.09;;;4.85;100.00
13661;BME280;6903;49.480;11.102;2023-01-30T14:14:04;97799.91;;;5.00;100.00
13661;BME280;6903;49.480;11.102;2023-01-30T14:16:46;97793.91;;;5.12;100.00
13661;BME280;6903;49.480;11.102;2023-01-30T14:19:42;97815.97;;;5.22;100.00
13661;BME280;6903;49.480;11.102;2023-01-30T14:22:22;97828.94;;;5.24;100.00
13661;BME280;6903;49.480;11.102;2023-01-30T14:27:50;97835.19;;;5.35;100.00
13661;BME280;6903;49.480;11.102;2023-01-30T14:30:33;97847.91;;;5.41;100.00
13661;BME280;6903;49.480;11.102;2023-01-30T14:33:00;97834.00;;;5.41;100.00
13661;BME280;6903;49.480;11.102;2023-01-30T14:35:27;97845.03;;;5.46;100.00
13661;BME280;6903;49.480;11.102;2023-01-30T14:38:13;97842.13;;;5.50;100.00
13661;BME280;6903;49.480;11.102;2023-01-30T14:40:41;97851.16;;;5.59;100.00
13661;BME280;6903;49.480;11.102;2023-01-30T14:54:08;97865.34;;;5.27;100.00
13661;BME280;6903;49.480;11.102;2023-01-30T14:59:29;97870.38;;;5.16;100.00
13661;BME280;6903;49.480;11.102;2023-01-30T15:04:44;97865.41;;;5.11;100.00
13661;BME280;6903;49.480;11.102;2023-01-30T15:07:14;97857.78;;;5.08;100.00